createdAt,value
2023-03-27T00:42:14.090Z,1.33
2023-03-27T00:45:15.162Z,1.67
2023-03-27T00:48:45.496Z,1.92
2023-03-27T00:54:55.316Z,1.70
2023-03-27T00:57:33.365Z,1.58
2023-03-27T01:00:18.235Z,1.60
2023-03-27T01:02:57.176Z,2.10
2023-03-27T01:05:49.297Z,1.98
2023-03-27T01:08:25.964Z,1.70
2023-03-27T01:11:13.454Z,2.00
2023-03-27T01:14:10.593Z,2.40
2023-03-27T01:16:47.097Z,1.88
2023-03-27T01:20:20.616Z,1.33
2023-03-27T01:23:35.929Z,1.80
2023-03-27T01:26:51.375Z,1.40
2023-03-27T01:30:02.322Z,1.92
2023-03-27T01:32:55.884Z,1.60
2023-03-27T01:36:05.694Z,1.70
2023-03-27T01:38:45.934Z,1.63
2023-03-27T01:41:35.302Z,1.73
2023-03-27T01:44:43.378Z,1.88
2023-03-27T01:47:41.863Z,1.52
2023-03-27T01:50:33.818Z,1.60
2023-03-27T01:53:22.168Z,2.05
2023-03-27T01:56:11.703Z,2.53
2023-03-27T01:58:56.645Z,1.80
2023-03-27T02:01:44.602Z,1.70
2023-03-27T02:04:24.234Z,1.60
2023-03-27T02:07:18.109Z,1.67
2023-03-27T02:10:00.371Z,1.63
2023-03-27T02:12:36.443Z,1.58
2023-03-27T02:15:23.502Z,1.98
2023-03-27T02:18:08.705Z,1.92
2023-03-27T02:20:49.212Z,1.75
2023-03-27T02:23:31.986Z,1.90
2023-03-27T02:26:03.828Z,1.48
2023-03-27T02:29:01.274Z,1.65
2023-03-27T02:31:57.632Z,1.83
2023-03-27T02:34:43.319Z,1.80
2023-03-27T02:37:32.162Z,1.48
2023-03-27T02:40:57.748Z,1.50
2023-03-27T02:44:46.839Z,1.85
2023-03-27T02:47:40.953Z,1.85
2023-03-27T02:51:09.620Z,1.58
2023-03-27T02:53:48.253Z,1.65
2023-03-27T02:56:23.345Z,1.45
2023-03-27T02:59:10.076Z,1.65
2023-03-27T03:01:44.641Z,1.30
2023-03-27T03:04:59.311Z,1.80
2023-03-27T03:07:39.896Z,1.38
2023-03-27T03:10:17.364Z,1.70
2023-03-27T03:12:59.367Z,1.50
2023-03-27T03:15:33.144Z,1.52
2023-03-27T03:18:05.738Z,1.40
2023-03-27T03:20:40.924Z,1.33
2023-03-27T03:23:11.857Z,1.70
2023-03-27T03:25:43.087Z,1.60
2023-03-27T03:28:19.629Z,1.88
2023-03-27T03:30:52.073Z,1.50
2023-03-27T03:33:25.422Z,1.63
2023-03-27T03:35:56.697Z,1.30
2023-03-27T03:38:37.622Z,1.40
2023-03-27T03:41:18.602Z,1.80
2023-03-27T03:43:55.159Z,1.35
2023-03-27T03:46:28.828Z,1.52
2023-03-27T03:49:00.110Z,1.55
2023-03-27T03:51:33.256Z,1.50
2023-03-27T03:54:04.141Z,1.70
2023-03-27T03:57:06.654Z,1.50
2023-03-27T03:59:40.700Z,1.95
2023-03-27T04:02:33.504Z,1.80
2023-03-27T04:05:14.809Z,1.73
2023-03-27T04:07:48.630Z,1.67
2023-03-27T04:10:31.823Z,1.70
2023-03-27T04:13:05.582Z,1.90
2023-03-27T04:15:43.060Z,1.75
2023-03-27T04:18:33.836Z,2.10
2023-03-27T04:21:15.714Z,1.80
2023-03-27T04:23:52.662Z,1.70
2023-03-27T04:26:35.957Z,1.80
2023-03-27T04:29:35.917Z,1.90
2023-03-27T04:32:11.964Z,1.88
2023-03-27T04:34:42.694Z,1.80
2023-03-27T04:37:45.631Z,2.05
2023-03-27T04:40:32.204Z,1.60
2023-03-27T04:43:03.287Z,1.70
2023-03-27T04:45:39.963Z,1.88
2023-03-27T04:48:11.281Z,1.98
2023-03-27T04:50:54.152Z,1.80
2023-03-27T04:53:39.716Z,1.83
2023-03-27T04:56:11.057Z,1.73
2023-03-27T04:58:48.892Z,1.70
2023-03-27T05:01:21.355Z,1.50
2023-03-27T05:04:10.772Z,1.73
2023-03-27T05:07:05.462Z,2.13
2023-03-27T05:09:37.778Z,1.98
2023-03-27T05:12:09.593Z,2.20
2023-03-27T05:14:50.021Z,1.73
2023-03-27T05:17:48.543Z,1.60
2023-03-27T05:20:23.560Z,2.00
2023-03-27T05:22:57.970Z,1.40
2023-03-27T05:25:30.895Z,1.80
2023-03-27T05:28:02.521Z,1.58
2023-03-27T05:30:35.763Z,2.20
2023-03-27T05:33:27.985Z,2.08
2023-03-27T05:35:58.924Z,1.58
2023-03-27T05:38:29.828Z,2.08
2023-03-27T05:41:13.084Z,1.80
2023-03-27T05:43:52.442Z,1.98
2023-03-27T05:46:27.622Z,1.42
2023-03-27T05:49:06.527Z,1.90
2023-03-27T05:51:39.062Z,1.70
2023-03-27T05:54:24.826Z,1.80
2023-03-27T05:57:08.181Z,1.65
2023-03-27T05:59:41.048Z,2.10
2023-03-27T06:02:23.375Z,1.92
2023-03-27T06:05:07.194Z,1.70
2023-03-27T06:07:43.963Z,1.73
2023-03-27T06:10:22.167Z,1.40
2023-03-27T06:13:24.235Z,2.05
2023-03-27T06:16:02.237Z,1.85
2023-03-27T06:18:55.398Z,1.85
2023-03-27T06:21:33.168Z,1.65
2023-03-27T06:24:06.323Z,1.58
2023-03-27T06:26:38.056Z,1.75
2023-03-27T06:29:09.790Z,1.55
2023-03-27T06:31:47.625Z,1.90
2023-03-27T06:34:36.553Z,1.20
2023-03-27T06:37:22.555Z,1.40
2023-03-27T06:39:52.945Z,1.33
2023-03-27T06:42:23.599Z,1.58
2023-03-27T06:45:01.135Z,2.00
2023-03-27T06:48:18.013Z,1.50
2023-03-27T06:50:56.342Z,1.40
2023-03-27T06:53:35.545Z,1.73
2023-03-27T06:56:08.948Z,1.55
2023-03-27T06:59:03.188Z,1.40
2023-03-27T07:01:34.173Z,1.35
2023-03-27T07:04:24.314Z,1.63
2023-03-27T07:07:14.636Z,1.92
2023-03-27T07:09:49.700Z,2.35
2023-03-27T07:12:24.378Z,1.30
2023-03-27T07:14:54.802Z,1.42
2023-03-27T07:17:42.118Z,1.83
2023-03-27T07:20:21.749Z,1.88
2023-03-27T07:22:56.123Z,1.70
2023-03-27T07:25:46.586Z,1.42
2023-03-27T07:28:25.693Z,1.30
2023-03-27T07:30:57.259Z,1.52
2023-03-27T07:33:28.336Z,2.00
2023-03-27T07:36:01.413Z,2.08
2023-03-27T07:38:50.209Z,2.03
2023-03-27T07:41:25.022Z,2.10
2023-03-27T07:44:02.043Z,2.10
2023-03-27T07:46:48.866Z,1.48
2023-03-27T07:49:39.440Z,1.55
2023-03-27T07:52:15.357Z,1.52
2023-03-27T07:55:00.699Z,1.95
2023-03-27T07:57:59.302Z,1.85
2023-03-27T08:00:36.691Z,2.00
2023-03-27T08:03:15.851Z,1.95
2023-03-27T08:06:05.143Z,1.83
2023-03-27T08:08:36.539Z,1.95
2023-03-27T08:11:16.121Z,1.83
2023-03-27T08:13:56.301Z,1.83
2023-03-27T08:16:32.177Z,2.05
2023-03-27T08:19:04.606Z,2.10
2023-03-27T08:21:38.363Z,1.90
2023-03-27T08:24:10.100Z,1.88
2023-03-27T08:26:59.860Z,1.45
2023-03-27T08:29:30.192Z,1.60
2023-03-27T08:32:03.531Z,1.90
2023-03-27T08:34:33.673Z,1.85
2023-03-27T08:37:04.467Z,1.52
2023-03-27T08:39:43.391Z,1.63
2023-03-27T08:42:22.432Z,1.58
2023-03-27T08:44:57.262Z,1.98
2023-03-27T08:47:57.753Z,1.85
2023-03-27T08:51:19.011Z,1.45
2023-03-27T08:54:28.713Z,1.55
2023-03-27T08:57:00.448Z,2.17
2023-03-27T08:59:33.133Z,1.77
2023-03-27T09:02:23.777Z,1.80
2023-03-27T09:05:28.633Z,1.63
2023-03-27T09:08:07.538Z,1.50
2023-03-27T09:10:50.773Z,1.20
2023-03-27T09:13:46.746Z,1.70
2023-03-27T09:16:36.101Z,1.90
2023-03-27T09:19:37.718Z,1.60
2023-03-27T09:22:13.202Z,1.60
2023-03-27T09:25:35.543Z,1.58
2023-03-27T09:28:32.954Z,1.42
2023-03-27T09:31:36.050Z,1.55
2023-03-27T09:34:16.940Z,1.98
2023-03-27T09:36:50.294Z,1.52
2023-03-27T09:39:25.094Z,1.60
2023-03-27T09:42:19.152Z,1.60
2023-03-27T09:44:58.965Z,1.45
2023-03-27T09:47:41.797Z,1.50
2023-03-27T09:50:25.015Z,1.42
2023-03-27T09:53:25.729Z,1.33
2023-03-27T09:56:18.943Z,1.40
2023-03-27T09:58:55.973Z,1.52
2023-03-27T10:01:38.544Z,1.25
2023-03-27T10:04:23.533Z,1.42
2023-03-27T10:07:11.634Z,1.73
2023-03-27T10:10:23.563Z,1.77
2023-03-27T10:13:06.690Z,1.52
2023-03-27T10:15:47.398Z,2.13
2023-03-27T10:18:29.664Z,1.70
2023-03-27T10:21:22.651Z,1.63
2023-03-27T10:23:54.524Z,1.27
2023-03-27T10:26:42.374Z,1.63
2023-03-27T10:29:39.086Z,1.70
2023-03-27T10:32:16.712Z,1.73
2023-03-27T10:35:00.998Z,1.80
2023-03-27T10:37:58.969Z,1.42
2023-03-27T10:40:40.553Z,1.42
2023-03-27T10:43:41.547Z,1.50
2023-03-27T10:46:33.744Z,1.50
2023-03-27T10:49:16.149Z,1.63
2023-03-27T10:52:06.256Z,1.60
2023-03-27T10:55:11.520Z,1.50
2023-03-27T10:57:48.626Z,2.05
2023-03-27T11:00:28.110Z,1.45
2023-03-27T11:03:16.957Z,1.63
2023-03-27T11:05:55.771Z,1.52
2023-03-27T11:09:03.359Z,1.50
2023-03-27T11:11:51.834Z,1.65
2023-03-27T11:15:03.579Z,2.10
2023-03-27T11:18:01.044Z,1.70
2023-03-27T11:20:59.375Z,2.40
2023-03-27T11:24:00.358Z,1.70
2023-03-27T11:27:13.851Z,6.63
2023-03-27T11:30:06.743Z,1.45
2023-03-27T11:33:27.756Z,1.98
2023-03-27T11:36:25.667Z,1.83
2023-03-27T11:39:22.699Z,1.52
2023-03-27T11:42:01.842Z,2.28
2023-03-27T11:44:33.472Z,1.75
2023-03-27T11:47:55.862Z,1.60
2023-03-27T11:50:54.948Z,1.63
2023-03-27T11:53:26.355Z,1.67
2023-03-27T11:56:44.783Z,1.30
2023-03-27T11:59:29.595Z,1.60
2023-03-27T12:02:22.303Z,1.73
2023-03-27T12:04:57.629Z,1.40
2023-03-27T12:08:00.650Z,1.63
2023-03-27T12:10:39.139Z,1.15
2023-03-27T12:13:41.630Z,1.23
2023-03-27T12:16:53.391Z,1.63
2023-03-27T12:19:44.446Z,1.45
2023-03-27T12:22:51.378Z,1.70
2023-03-27T12:25:48.682Z,1.42
2023-03-27T12:29:02.873Z,1.50
2023-03-27T12:32:51.654Z,4.70
2023-03-27T12:35:30.130Z,5.47
2023-03-27T12:38:08.433Z,4.22
2023-03-27T12:40:43.557Z,2.17
2023-03-27T12:43:25.858Z,1.25
2023-03-27T12:46:20.003Z,4.10
2023-03-27T12:49:10.538Z,7.70
2023-03-27T12:52:07.416Z,3.35
2023-03-27T12:55:19.241Z,3.42
2023-03-27T12:58:04.848Z,2.85
2023-03-27T13:01:08.341Z,7.07
2023-03-27T13:04:17.350Z,8.20
2023-03-27T13:07:07.348Z,6.38
2023-03-27T13:10:25.628Z,3.55
2023-03-27T13:13:24.498Z,6.45
2023-03-27T13:16:22.525Z,4.82
2023-03-27T13:19:25.676Z,7.45
2023-03-27T13:22:30.643Z,5.32
2023-03-27T13:25:15.339Z,8.80
2023-03-27T13:28:10.530Z,5.93
2023-03-27T13:30:53.741Z,7.35
2023-03-27T13:33:48.885Z,5.75
2023-03-27T13:36:34.253Z,4.75
2023-03-27T13:39:06.950Z,5.95
2023-03-27T13:41:47.601Z,4.10
2023-03-27T13:44:55.209Z,3.95
2023-03-27T13:47:37.826Z,6.25
2023-03-27T13:50:32.516Z,5.05
2023-03-27T13:53:43.689Z,3.40
2023-03-27T13:56:46.797Z,4.57
2023-03-27T13:59:29.660Z,4.38
2023-03-27T14:02:14.593Z,5.75
2023-03-27T14:04:58.982Z,4.60
2023-03-27T14:15:50.083Z,3.65
2023-03-27T14:19:16.590Z,3.92
2023-03-27T14:22:14.069Z,5.00
2023-03-27T14:25:07.541Z,4.03
2023-03-27T14:27:56.154Z,2.72
2023-03-27T14:30:32.154Z,2.97
2023-03-27T14:33:25.399Z,3.88
2023-03-27T14:36:05.304Z,4.55
2023-03-27T14:38:40.444Z,4.90
2023-03-27T14:41:28.217Z,4.18
2023-03-27T14:44:05.475Z,2.75
2023-03-27T14:46:50.360Z,3.97
2023-03-27T14:49:26.941Z,4.43
2023-03-27T14:52:05.394Z,3.50
2023-03-27T14:55:01.924Z,3.78
2023-03-27T14:57:39.285Z,4.10
2023-03-27T15:00:21.588Z,3.67
2023-03-27T15:02:55.965Z,2.75
2023-03-27T15:05:29.447Z,2.53
2023-03-27T15:08:04.713Z,3.92
2023-03-27T15:10:56.979Z,5.40
2023-03-27T15:13:42.452Z,6.07
2023-03-27T15:16:29.257Z,6.50
2023-03-27T15:19:11.040Z,4.35
2023-03-27T15:22:01.731Z,4.00
2023-03-27T15:24:33.775Z,2.40
2023-03-27T15:27:05.268Z,5.57
2023-03-27T15:29:45.428Z,4.15
2023-03-27T15:32:21.702Z,3.92
2023-03-27T15:35:04.849Z,3.90
2023-03-27T15:37:41.700Z,3.33
2023-03-27T15:40:15.523Z,4.18
2023-03-27T15:42:56.185Z,4.18
2023-03-27T15:45:40.469Z,3.45
2023-03-27T15:48:40.825Z,3.90
2023-03-27T15:51:22.723Z,8.40
2023-03-27T15:53:57.566Z,3.17
2023-03-27T15:57:09.377Z,3.88
2023-03-27T15:59:51.347Z,6.07
2023-03-27T16:02:28.702Z,3.70
2023-03-27T16:05:00.641Z,4.03
2023-03-27T16:07:37.232Z,4.40
2023-03-27T16:10:08.944Z,4.38
2023-03-27T16:12:44.786Z,5.07
2023-03-27T16:15:37.347Z,3.63
2023-03-27T16:18:26.054Z,3.33
2023-03-27T16:21:08.103Z,5.38
2023-03-27T16:23:39.993Z,3.90
2023-03-27T16:26:15.898Z,6.63
2023-03-27T16:28:47.543Z,7.00
2023-03-27T16:31:20.480Z,2.65
2023-03-27T16:33:50.960Z,3.38
2023-03-27T16:36:28.499Z,4.68
2023-03-27T16:39:00.380Z,4.75
2023-03-27T16:41:32.185Z,5.97
2023-03-27T16:44:04.601Z,4.55
2023-03-27T16:46:37.772Z,8.65
2023-03-27T16:49:09.001Z,5.45
2023-03-27T16:51:39.104Z,9.93
2023-03-27T16:54:09.180Z,4.07
2023-03-27T16:56:41.656Z,6.45
2023-03-27T16:59:11.951Z,3.90
2023-03-27T17:01:42.977Z,4.72
2023-03-27T17:04:13.716Z,4.75
2023-03-27T17:06:43.898Z,5.25
2023-03-27T17:09:16.122Z,7.10
2023-03-27T17:11:47.024Z,6.70
2023-03-27T17:14:18.328Z,8.85
2023-03-27T17:16:51.055Z,6.90
2023-03-27T17:19:23.009Z,3.45
2023-03-27T17:21:53.398Z,4.90
2023-03-27T17:24:24.336Z,8.32
2023-03-27T17:26:54.981Z,5.00
2023-03-27T17:29:26.240Z,4.50
2023-03-27T17:32:03.367Z,5.10
2023-03-27T17:34:34.944Z,7.25
2023-03-27T17:37:05.371Z,3.97
2023-03-27T17:39:36.666Z,6.82
2023-03-27T17:42:07.518Z,3.67
2023-03-27T17:44:40.290Z,4.13
2023-03-27T17:47:14.497Z,1.88
2023-03-27T17:49:46.433Z,2.72
2023-03-27T17:52:17.290Z,3.40
2023-03-27T17:54:48.891Z,3.55
2023-03-27T17:57:19.391Z,5.75
2023-03-27T17:59:50.264Z,4.15
2023-03-27T18:02:22.797Z,12.23
2023-03-27T18:04:55.692Z,4.65
2023-03-27T18:07:27.139Z,5.57
2023-03-27T18:09:58.101Z,6.05
2023-03-27T18:12:29.314Z,5.57
2023-03-27T18:15:00.831Z,6.22
2023-03-27T18:17:32.021Z,7.13
2023-03-27T18:20:03.318Z,5.20
2023-03-27T18:22:34.042Z,7.43
2023-03-27T18:25:05.735Z,4.93
2023-03-27T18:27:42.486Z,4.90
2023-03-27T18:30:15.908Z,2.92
2023-03-27T18:32:48.362Z,8.32
2023-03-27T18:35:21.311Z,5.85
2023-03-27T18:37:52.472Z,7.72
2023-03-27T18:40:22.826Z,3.80
2023-03-27T18:42:54.418Z,5.63
2023-03-27T18:45:25.461Z,5.28
2023-03-27T18:47:55.984Z,8.73
2023-03-27T18:50:27.012Z,9.68
2023-03-27T18:52:57.702Z,5.10
2023-03-27T18:55:28.990Z,5.07
2023-03-27T18:57:59.630Z,6.07
2023-03-27T19:00:30.158Z,6.60
2023-03-27T19:03:01.180Z,7.88
2023-03-27T19:05:32.669Z,8.05
2023-03-27T19:08:02.716Z,5.30
2023-03-27T19:10:35.950Z,5.72
2023-03-27T19:13:42.171Z,6.38
2023-03-27T19:16:33.240Z,8.25
2023-03-27T19:19:24.707Z,3.97
2023-03-27T19:21:55.730Z,7.75
2023-03-27T19:24:49.269Z,6.07
2023-03-27T19:27:23.558Z,5.40
2023-03-27T19:29:57.031Z,14.63
2023-03-27T19:32:27.380Z,3.88
2023-03-27T19:34:58.750Z,5.88
2023-03-27T19:37:31.117Z,7.43
2023-03-27T19:40:02.409Z,4.93
2023-03-27T19:42:34.230Z,7.07
2023-03-27T19:45:05.942Z,6.80
2023-03-27T19:47:37.914Z,7.90
2023-03-27T19:50:10.723Z,5.45
2023-03-27T19:53:05.431Z,4.28
2023-03-27T19:55:40.707Z,5.88
2023-03-27T19:58:13.758Z,5.38
2023-03-27T20:00:45.812Z,7.15
2023-03-27T20:03:17.951Z,6.35
2023-03-27T20:05:50.913Z,8.20
2023-03-27T20:08:23.632Z,6.93
2023-03-27T20:10:53.878Z,8.90
2023-03-27T20:13:25.285Z,7.38
2023-03-27T20:15:55.611Z,2.22
2023-03-27T20:18:26.491Z,3.95
2023-03-27T20:20:57.793Z,6.82
2023-03-27T20:23:34.548Z,7.20
2023-03-27T20:26:07.370Z,13.30
2023-03-27T20:28:40.604Z,7.05
2023-03-27T20:31:12.286Z,10.77
2023-03-27T20:33:42.735Z,5.38
2023-03-27T20:36:14.541Z,16.33
2023-03-27T20:38:44.896Z,8.75
2023-03-27T20:41:18.585Z,3.85
2023-03-27T20:43:50.369Z,13.52
2023-03-27T20:46:21.315Z,8.82
2023-03-27T20:48:53.494Z,6.43
2023-03-27T20:51:25.990Z,7.55
2023-03-27T20:53:59.547Z,11.20
2023-03-27T20:56:31.002Z,12.73
2023-03-27T20:59:01.469Z,9.45
2023-03-27T21:01:31.517Z,13.63
2023-03-27T21:04:03.548Z,5.78
2023-03-27T21:06:39.038Z,6.65
2023-03-27T21:09:11.813Z,7.22
2023-03-27T21:11:42.212Z,8.73
2023-03-27T21:14:16.159Z,6.25
2023-03-27T21:16:47.882Z,6.60
2023-03-27T21:19:18.505Z,7.93
2023-03-27T21:21:49.607Z,5.32
2023-03-27T21:24:21.059Z,8.75
2023-03-27T21:26:52.385Z,11.10
2023-03-27T21:29:24.675Z,10.80
2023-03-27T21:31:54.906Z,9.98
2023-03-27T21:34:27.272Z,10.77
2023-03-27T21:36:58.342Z,13.88
2023-03-27T21:39:30.011Z,7.10
2023-03-27T21:42:00.495Z,5.32
2023-03-27T21:44:30.799Z,13.88
2023-03-27T21:47:02.229Z,9.93
2023-03-27T21:49:34.297Z,5.40
2023-03-27T21:52:06.005Z,15.20
2023-03-27T21:54:37.021Z,10.80
2023-03-27T21:57:07.613Z,9.52
2023-03-27T21:59:38.468Z,7.13
2023-03-27T22:02:10.382Z,8.48
2023-03-27T22:04:44.403Z,6.55
2023-03-27T22:07:14.919Z,6.38
2023-03-27T22:09:49.307Z,12.27
2023-03-27T22:12:19.692Z,7.15
2023-03-27T22:14:50.460Z,7.35
2023-03-27T22:17:20.857Z,8.32
2023-03-27T22:19:55.243Z,6.82
2023-03-27T22:22:27.082Z,4.40
2023-03-27T22:24:58.777Z,7.80
2023-03-27T22:27:29.216Z,6.45
2023-03-27T22:30:00.238Z,10.45
2023-03-27T22:32:31.869Z,10.63
2023-03-27T22:35:03.176Z,7.88
2023-03-27T22:37:36.729Z,10.68
2023-03-27T22:40:09.846Z,5.25
2023-03-27T22:42:41.119Z,7.18
2023-03-27T22:45:11.838Z,4.70
2023-03-27T22:47:45.258Z,3.88
2023-03-27T22:50:18.024Z,7.50
2023-03-27T22:52:49.818Z,6.63
2023-03-27T22:55:27.548Z,5.45
2023-03-27T22:57:58.965Z,7.93
2023-03-27T23:00:30.647Z,8.10
2023-03-27T23:03:02.999Z,3.83
2023-03-27T23:05:38.955Z,7.00
2023-03-27T23:10:40.870Z,7.97
2023-03-27T23:13:12.515Z,6.57
2023-03-27T23:15:42.738Z,5.75
2023-03-27T23:18:14.575Z,4.95
2023-03-27T23:20:44.940Z,10.20
2023-03-27T23:23:15.980Z,6.15
2023-03-27T23:25:47.454Z,6.80
2023-03-27T23:28:17.962Z,10.50
2023-03-27T23:31:02.743Z,7.60
2023-03-27T23:33:38.652Z,10.45
2023-03-27T23:36:12.785Z,7.82
2023-03-27T23:38:44.330Z,5.85
2023-03-27T23:41:17.553Z,4.72
2023-03-27T23:43:49.459Z,6.45
2023-03-27T23:46:20.743Z,7.85
2023-03-27T23:48:51.909Z,6.82
2023-03-27T23:51:25.953Z,4.35
2023-03-27T23:53:56.342Z,7.55
2023-03-27T23:56:27.182Z,6.45
2023-03-27T23:58:58.174Z,7.20
